Decoded Metar for KBJJ (WOOSTER in OH, USA) (IATA:BJJ) | Meteo·Mobile Aviation Weather
aviador You're here:

KBJJ Decoded Metar

WOOSTER in OH, USA
Report Time2018-09-22 17:56:00
UTC Time2018-09-22 19:00:03
Flight Rules vfr VFR
WindVRB at 06 kt
Visibility9999 m
Phenomena:N/A
Clouds:Broken 032 Hf
Expected CloudBase > 2,800 ft AGL from Temp-Dew spread
Ceiling3,200 ft
Temp17°C (ISA +4)
Dew Point10°C (64% RH)
AAT14.9°C
QNH1025 hPa
Density Alt1,388 ft
Elevation1,125 ft
Report Wrong Elevation
Raw Report
KBJJ 221756Z AUTO VRB06KT 10SM BKN032 17/10 A3027 RMK AO2 SLP249
T01670100 10167 20133 58006=

Extra information for KBJJ:More info

Metar Taf Metar & Taf Last 4 Metars F.Rules Stats Wind Profile Meteogram Temp Stats Airport Information Weather charts Add Link Nearby VenuesMetar ALERT Operation Metar Decoded Social comments

AIRNAV info for KBJJ